Aérodrome :
LOGIN :

S'inscrire | Disclaimer

   EN    FR    IT 

 










Légende :    VFR   VFR Marginal   IFR   IFR Intensif   IFR Très Intensif
Visi : 
Plafond : 
>= 8 km
>= 3000ft
5 à 8 km
1000 à 3000 ft
1500m à 5 km
500 à 1000 ft
800 à 1500m
200 à 500 ft
< 800m
< 200 ft
Symboles :   Orages  Brouillard  Fortes neiges  Fortes précipitations  Vent > 20 kt
SIGMETs :   Divers  Orages  Givrage  Turbulence  Onde Orograph.  Cendres Volcan.







- Altitude de l'aérodrome : 74 ft
- Code IATA : EIN


EHEH - Eindhoven

DERNIER METAR :
  • 230325Z AUTO 22008KT 9999 OVC180 06/05 Q1029 BLU

METARs EXPIRÉS :
  • 230255Z AUTO 21007KT 9999 OVC250 05/04 Q1029 BLU
  • 230225Z AUTO 22007KT 190V270 9999 OVC200 05/04 Q1030 BLU
  • 230155Z AUTO 22007KT 9999 OVC250 05/04 Q1030 BLU
  • 230125Z AUTO 22008KT 9999 OVC270 04/02 Q1031 BLU
  • 230055Z AUTO 22007KT 9999 OVC350 03/02 Q1032 BLU

TAF TAF EHEH
Valide du 23 à 00h jusqu'au 24 à 06h UTC


230000Z 2300/2406 22005KT CAVOK
BECMG 2303/2306 24012KT BKN025
PROB40
TEMPO 2306/2316 SCT016 BKN022
BECMG 2309/2311 29015G25KT
BECMG 2317/2319 29012KT
BECMG 2322/2400 SCT015 BKN020
PROB40
TEMPO 2400/2406 SCT008 BKN012
Pas de NOTAMs connus pour ce terrain.



MET'MAP, la Météo Aéronautique d'un coup d'oeil ! - Copyright ORBIFLY Décembre 2007 - Disclaimer

ORBIFLY MET'MAP TEAM :

Programmation & Développement : Alexandra Zaïnal
Conception & Développement : Baudouin d'Aumeries
Co-Programmation & Développement : Marc-Olivier Méhu
Soutien technique & logistique : Manuel Goepfert

Contact : metmap@orbifly.com




SOURCES & CREDITS :

   NOAA